M/T Goviken — 9HA2718 — position and weather

sailwx.info

Track history (hours):
 
Tides and Currents Weather Stations Pressure Air Temp Water Temp Dewpoint Dewpoint Depression Visibility Wind Speed Wind Dir Waves Ship Positions

M/T Goviken

Last reported at 2016-Jun-26 16:31 UTC. Time now 2016-Jun-26 17:20 UTC.
Position N 48°07' W 004°26'.

Length 88 m; draft 5.5 m.

Type: Ship (hazmat cat A). MMSI: 215389000.

Date/timePositionNaut miles runAvg speedWind from/ knotsBaromVisibWave heightAir tempDewpointWater temp
2016-Jun-26 16:31N 48°07' W 004°26'0 0.0
2016-Jun-26 15:31N 48°07' W 004°26'0 0.0
2016-Jun-26 14:31N 48°07' W 004°26'0 0.0
2016-Jun-26 13:31N 48°07' W 004°26'0 0.0
2016-Jun-26 12:31N 48°07' W 004°26'0 0.0
2016-Jun-26 11:31N 48°07' W 004°26'0 0.0
2016-Jun-26 10:31N 48°07' W 004°26'0 0.0
2016-Jun-26 09:31N 48°07' W 004°26'0 0.0
2016-Jun-26 08:31N 48°07' W 004°26'0 0.0
2016-Jun-26 07:31N 48°07' W 004°26'0 0.0
2016-Jun-26 06:31N 48°07' W 004°26'0 0.0
2016-Jun-26 05:31N 48°07' W 004°26'0 0.0
2016-Jun-26 04:31N 48°07' W 004°26'0 0.0
2016-Jun-26 03:31N 48°07' W 004°26'0 0.0
2016-Jun-26 02:31N 48°07' W 004°26'0 0.0
2016-Jun-26 01:31N 48°07' W 004°26'0 0.0
2016-Jun-26 00:31N 48°07' W 004°26'0 0.0
2016-Jun-25 23:31N 48°07' W 004°26'0 0.0
2016-Jun-25 22:31N 48°07' W 004°26'0 0.0
2016-Jun-25 21:31N 48°07' W 004°26'0 0.0
2016-Jun-25 20:31N 48°07' W 004°26'0 0.0
2016-Jun-25 19:31N 48°07' W 004°26'0 0.0
2016-Jun-25 18:31N 48°07' W 004°26'0 0.0
2016-Jun-25 17:31N 48°07' W 004°26'0 0.0
2016-Jun-25 16:31N 48°07' W 004°26'0 0.0
2016-Jun-25 15:31N 48°07' W 004°26'0 0.0
2016-Jun-25 14:28N 48°07' W 004°26'0 0.0
2016-Jun-25 13:31N 48°07' W 004°26'0 0.0
2016-Jun-25 12:31N 48°07' W 004°26'0 0.0
2016-Jun-25 11:31N 48°07' W 004°26'0 0.0
2016-Jun-25 10:31N 48°07' W 004°26'0 0.0
2016-Jun-25 09:31N 48°07' W 004°26'0 0.0
2016-Jun-25 08:31N 48°07' W 004°26'0 0.0
2016-Jun-25 07:31N 48°07' W 004°26'0 0.0
2016-Jun-25 06:31N 48°07' W 004°26'0 0.0
2016-Jun-25 05:31N 48°07' W 004°26'0 0.0
2016-Jun-25 04:31N 48°07' W 004°26'0 0.0
2016-Jun-25 03:31N 48°07' W 004°26'0 0.0
2016-Jun-25 02:31N 48°07' W 004°26'0 0.0
2016-Jun-25 01:31N 48°07' W 004°26'0 0.0
2016-Jun-25 00:31N 48°07' W 004°26'0 0.0
2016-Jun-24 23:31N 48°07' W 004°26'0 0.0
2016-Jun-24 22:31N 48°07' W 004°26'0 0.0
2016-Jun-24 21:31N 48°07' W 004°26'0 0.0
2016-Jun-24 20:31N 48°07' W 004°26'0 0.0
2016-Jun-24 19:31N 48°07' W 004°26'0 0.0
2016-Jun-24 18:31N 48°07' W 004°26'0 0.0
2016-Jun-24 17:31N 48°07' W 004°26'0 0.0
2016-Jun-24 16:31N 48°07' W 004°26'0 0.0
2016-Jun-24 15:31N 48°07' W 004°26'0 0.0
2016-Jun-24 14:31N 48°07' W 004°26'4 3.8
2016-Jun-24 13:33N 48°07' W 004°31'1111.4
2016-Jun-24 12:33N 48°09' W 004°48'8 8.3
2016-Jun-24 11:33N 48°17' W 004°45'1111.3
2016-Jun-24 10:33N 48°22' W 004°30'2 2.2
2016-Jun-24 09:32N 48°23' W 004°27'0 0.0
2016-Jun-24 08:32N 48°23' W 004°27'0 0.0
2016-Jun-24 07:32N 48°23' W 004°27'0 0.0
2016-Jun-24 04:32N 48°23' W 004°27'0 0.0
2016-Jun-24 03:32N 48°23' W 004°27'0 0.0
2016-Jun-24 02:32N 48°23' W 004°27'0 0.0
2016-Jun-24 01:32N 48°23' W 004°27'0 0.0
2016-Jun-24 00:32N 48°23' W 004°27'0 0.0
2016-Jun-23 23:32N 48°23' W 004°27'0 0.0
2016-Jun-23 22:32N 48°23' W 004°27'0 0.0
2016-Jun-23 21:32N 48°23' W 004°27'0 0.0
2016-Jun-23 20:29N 48°23' W 004°27'0 0.0
2016-Jun-23 19:32N 48°23' W 004°27'0 0.0
2016-Jun-23 18:32N 48°23' W 004°27'0 0.0
2016-Jun-23 17:32N 48°23' W 004°27'0 0.1
2016-Jun-23 16:34N 48°23' W 004°27'9 9.1
2016-Jun-23 15:33N 48°19' W 004°40'4 3.9
2016-Jun-23 14:31N 48°18' W 004°46'0 0.1
2016-Jun-23 13:31N 48°18' W 004°46'0 0.0
2016-Jun-23 12:31N 48°18' W 004°46'0 0.0
2016-Jun-23 11:31N 48°18' W 004°46'0 0.0
2016-Jun-23 10:31N 48°18' W 004°46'0 0.0
2016-Jun-23 09:31N 48°18' W 004°46'0 0.1
2016-Jun-23 08:31N 48°18' W 004°46'0 0.0
2016-Jun-23 07:31N 48°18' W 004°46'0 0.0
2016-Jun-23 05:31N 48°18' W 004°46'0 0.1
2016-Jun-23 04:31N 48°18' W 004°46'0 0.0
2016-Jun-23 03:31N 48°18' W 004°46'0 0.0
2016-Jun-23 02:31N 48°18' W 004°46'0 0.0
2016-Jun-23 01:31N 48°18' W 004°46'0 0.0
2016-Jun-23 00:31N 48°18' W 004°46'0 0.0
2016-Jun-22 23:31N 48°18' W 004°46'0 0.0
2016-Jun-22 22:31N 48°18' W 004°46'0 0.0
2016-Jun-22 21:31N 48°18' W 004°46'0 0.0
2016-Jun-22 20:31N 48°18' W 004°46'0 0.1
2016-Jun-22 19:31N 48°18' W 004°46'0 0.0
2016-Jun-22 18:31N 48°18' W 004°46'0 0.0
2016-Jun-22 17:31N 48°18' W 004°46'0 0.0
2016-Jun-22 16:31N 48°18' W 004°46'0 0.1
2016-Jun-22 15:31N 48°18' W 004°46'0 0.0
2016-Jun-22 14:31N 48°18' W 004°46'0 0.0
2016-Jun-22 13:31N 48°18' W 004°46'0 0.0
2016-Jun-22 12:31N 48°18' W 004°46'0 0.0
2016-Jun-22 11:31N 48°18' W 004°46'0 0.0
2016-Jun-22 10:31N 48°18' W 004°46'0 0.0
2016-Jun-22 09:31N 48°18' W 004°46'0 0.0
2016-Jun-22 08:31N 48°18' W 004°46'0 0.1
2016-Jun-22 07:31N 48°18' W 004°46'0 0.0
2016-Jun-22 06:31N 48°18' W 004°46'0 0.1
2016-Jun-22 05:31N 48°18' W 004°46'0 0.0
2016-Jun-22 04:31N 48°18' W 004°46'0 0.0
2016-Jun-22 03:31N 48°18' W 004°46'0 0.0
2016-Jun-22 02:31N 48°18' W 004°46'0 0.0
2016-Jun-22 01:31N 48°18' W 004°46'0 0.0
2016-Jun-22 00:31N 48°18' W 004°46'0 0.0
2016-Jun-21 23:31N 48°18' W 004°46'0 0.0
2016-Jun-21 22:31N 48°18' W 004°46'0 0.0
2016-Jun-21 21:31N 48°18' W 004°46'0 0.0
2016-Jun-21 20:31N 48°18' W 004°46'0 0.1
2016-Jun-21 19:31N 48°18' W 004°46'0 0.1
2016-Jun-21 18:31N 48°18' W 004°46'0 0.1
2016-Jun-21 17:31N 48°18' W 004°46'0 0.0
2016-Jun-21 16:31N 48°18' W 004°46'0 0.0
2016-Jun-21 15:31N 48°18' W 004°46'0 0.0
2016-Jun-21 14:31N 48°18' W 004°46'0 0.0
2016-Jun-21 13:31N 48°18' W 004°46'0 0.0
2016-Jun-21 12:31N 48°18' W 004°46'0 0.0
2016-Jun-21 11:31N 48°18' W 004°46'0 0.0
2016-Jun-21 10:31N 48°18' W 004°46'0 0.0
2016-Jun-21 09:31N 48°18' W 004°46'0 0.0
2016-Jun-21 08:31N 48°18' W 004°46'0 0.1
2016-Jun-21 07:31N 48°18' W 004°46'0 0.1
2016-Jun-21 06:32N 48°18' W 004°46'0 0.0
2016-Jun-21 04:31N 48°18' W 004°46'0 0.0
2016-Jun-21 03:31N 48°18' W 004°46'0 0.0
2016-Jun-21 02:31N 48°18' W 004°46'0 0.0
2016-Jun-21 01:31N 48°18' W 004°46'0 0.0
2016-Jun-21 00:31N 48°18' W 004°46'0 0.0
2016-Jun-20 23:31N 48°18' W 004°46'0 0.0
2016-Jun-20 22:31N 48°18' W 004°46'0 0.0
2016-Jun-20 21:31N 48°18' W 004°46'0 0.0
2016-Jun-20 20:31N 48°18' W 004°46'0 0.1
2016-Jun-20 19:31N 48°18' W 004°46'7 6.9
2016-Jun-20 18:33N 48°15' W 004°55'1010.3
2016-Jun-20 17:33N 48°17' W 005°10'105 6.6
2016-Jun-20 01:33N 49°43' W 003°38'1111.0
2016-Jun-20 00:33N 49°49' W 003°23'1111.4
2016-Jun-19 23:33N 49°55' W 003°08'1110.9
2016-Jun-19 22:33N 49°60' W 002°53'9710.3
2016-Jun-19 13:05N 50°26' W 000°27'712.5
2016-Jun-19 12:33N 50°27' W 000°17'1211.8
2016-Jun-19 11:33N 50°31' E 000°01'1111.2
2016-Jun-19 10:33N 50°34' E 000°18'3310.0
2016-Jun-19 07:15N 50°51' E 001°03'912.1
2016-Jun-19 06:31N 50°56' E 001°14'1313.4
2016-Jun-19 05:33N 51°05' E 001°30'1312.9
2016-Jun-19 04:33N 51°13' E 001°45'1111.5
2016-Jun-19 03:33N 51°22' E 001°57'9 9.2
2016-Jun-19 02:33N 51°22' E 002°11'10 9.9
2016-Jun-19 01:34N 51°22' E 002°27'10 9.5
2016-Jun-19 00:33N 51°22' E 002°43'8 8.5
2016-Jun-18 23:33N 51°23' E 002°56'9 8.7
2016-Jun-18 22:33N 51°24' E 003°10'9 8.9
2016-Jun-18 21:33N 51°25' E 003°24'9 9.4
2016-Jun-18 20:33N 51°26' E 003°39'10 9.5
2016-Jun-18 19:33N 51°21' E 003°51'7 7.3
2016-Jun-18 18:33N 51°23' E 004°02'9 9.5
2016-Jun-18 17:34N 51°19' E 004°16'4 3.7
2016-Jun-18 16:34N 51°17' E 004°20'1 1.0
2016-Jun-18 15:33N 51°16' E 004°20'0 0.0
2016-Jun-18 14:33N 51°16' E 004°20'0 0.0
2016-Jun-18 13:30N 51°16' E 004°20'0 0.0
2016-Jun-18 12:33N 51°16' E 004°20'0 0.0
2016-Jun-18 11:33N 51°16' E 004°20'0 0.0
2016-Jun-18 10:33N 51°16' E 004°20'0 0.0
2016-Jun-18 09:27N 51°16' E 004°20'0 0.0
2016-Jun-18 08:33N 51°16' E 004°20'0 0.0
2016-Jun-18 07:30N 51°16' E 004°20'0 0.0
2016-Jun-18 06:33N 51°16' E 004°20'0 0.0
2016-Jun-18 05:33N 51°16' E 004°20'0 0.0
2016-Jun-18 04:30N 51°16' E 004°20'0 0.0
2016-Jun-18 03:30N 51°16' E 004°20'0 0.0
2016-Jun-18 02:33N 51°16' E 004°20'0 0.0
2016-Jun-18 01:33N 51°16' E 004°20'0 0.0
2016-Jun-18 00:33N 51°16' E 004°20'0 0.0
2016-Jun-17 23:33N 51°16' E 004°20'0 0.0
2016-Jun-17 22:33N 51°16' E 004°20'0 0.0
2016-Jun-17 21:33N 51°16' E 004°20'0 0.0
2016-Jun-17 20:33N 51°16' E 004°20'3 3.3
2016-Jun-17 19:33N 51°19' E 004°19'2 2.3
2016-Jun-17 18:34N 51°21' E 004°17'5 5.3
2016-Jun-17 17:33N 51°23' E 004°09'7 7.3
2016-Jun-17 16:33N 51°26' E 003°59'8 8.0
2016-Jun-17 15:33N 51°21' E 003°49'8 8.5
2016-Jun-17 14:33N 51°25' E 003°37'9 8.9
2016-Jun-17 13:33N 51°31' E 003°26'1110.4
2016-Jun-17 12:32N 51°40' E 003°18'5 1.2
2016-Jun-17 08:10N 51°46' E 003°20'0 0.0
2016-Jun-17 07:13N 51°46' E 003°20'0 0.0
2016-Jun-17 02:16N 51°46' E 003°20'0 0.0
2016-Jun-17 00:19N 51°46' E 003°20'0 0.0
2016-Jun-16 23:10N 51°46' E 003°20'0 0.0
2016-Jun-16 21:16N 51°46' E 003°20'0 0.0
2016-Jun-16 19:07N 51°46' E 003°20'0 0.0
2016-Jun-16 18:19N 51°46' E 003°20'  
Track history (hours):
 
Tides and Currents Weather Stations Pressure Air Temp Water Temp Dewpoint Dewpoint Depression Visibility Wind Speed Wind Dir Waves Ship Positions

M/T Goviken

Last reported at 2016-Jun-26 16:31 UTC. Time now 2016-Jun-26 17:20 UTC.
Position N 48°07' W 004°26'.

Length 88 m; draft 5.5 m.

Type: Ship (hazmat cat A). MMSI: 215389000.

Date/timePositionNaut miles runAvg speedWind from/ knotsBaromVisibWave heightAir tempDewpointWater temp
2016-Jun-26 16:31N 48°07' W 004°26'0 0.0
2016-Jun-26 15:31N 48°07' W 004°26'0 0.0
2016-Jun-26 14:31N 48°07' W 004°26'0 0.0
2016-Jun-26 13:31N 48°07' W 004°26'0 0.0
2016-Jun-26 12:31N 48°07' W 004°26'0 0.0
2016-Jun-26 11:31N 48°07' W 004°26'0 0.0
2016-Jun-26 10:31N 48°07' W 004°26'0 0.0
2016-Jun-26 09:31N 48°07' W 004°26'0 0.0
2016-Jun-26 08:31N 48°07' W 004°26'0 0.0
2016-Jun-26 07:31N 48°07' W 004°26'0 0.0
2016-Jun-26 06:31N 48°07' W 004°26'0 0.0
2016-Jun-26 05:31N 48°07' W 004°26'0 0.0
2016-Jun-26 04:31N 48°07' W 004°26'0 0.0
2016-Jun-26 03:31N 48°07' W 004°26'0 0.0
2016-Jun-26 02:31N 48°07' W 004°26'0 0.0
2016-Jun-26 01:31N 48°07' W 004°26'0 0.0
2016-Jun-26 00:31N 48°07' W 004°26'0 0.0
2016-Jun-25 23:31N 48°07' W 004°26'0 0.0
2016-Jun-25 22:31N 48°07' W 004°26'0 0.0
2016-Jun-25 21:31N 48°07' W 004°26'0 0.0
2016-Jun-25 20:31N 48°07' W 004°26'0 0.0
2016-Jun-25 19:31N 48°07' W 004°26'0 0.0
2016-Jun-25 18:31N 48°07' W 004°26'0 0.0
2016-Jun-25 17:31N 48°07' W 004°26'0 0.0
2016-Jun-25 16:31N 48°07' W 004°26'0 0.0
2016-Jun-25 15:31N 48°07' W 004°26'0 0.0
2016-Jun-25 14:28N 48°07' W 004°26'0 0.0
2016-Jun-25 13:31N 48°07' W 004°26'0 0.0
2016-Jun-25 12:31N 48°07' W 004°26'0 0.0
2016-Jun-25 11:31N 48°07' W 004°26'0 0.0
2016-Jun-25 10:31N 48°07' W 004°26'0 0.0
2016-Jun-25 09:31N 48°07' W 004°26'0 0.0
2016-Jun-25 08:31N 48°07' W 004°26'0 0.0
2016-Jun-25 07:31N 48°07' W 004°26'0 0.0
2016-Jun-25 06:31N 48°07' W 004°26'0 0.0
2016-Jun-25 05:31N 48°07' W 004°26'0 0.0
2016-Jun-25 04:31N 48°07' W 004°26'0 0.0
2016-Jun-25 03:31N 48°07' W 004°26'0 0.0
2016-Jun-25 02:31N 48°07' W 004°26'0 0.0
2016-Jun-25 01:31N 48°07' W 004°26'0 0.0
2016-Jun-25 00:31N 48°07' W 004°26'0 0.0
2016-Jun-24 23:31N 48°07' W 004°26'0 0.0
2016-Jun-24 22:31N 48°07' W 004°26'0 0.0
2016-Jun-24 21:31N 48°07' W 004°26'0 0.0
2016-Jun-24 20:31N 48°07' W 004°26'0 0.0
2016-Jun-24 19:31N 48°07' W 004°26'0 0.0
2016-Jun-24 18:31N 48°07' W 004°26'0 0.0
2016-Jun-24 17:31N 48°07' W 004°26'0 0.0
2016-Jun-24 16:31N 48°07' W 004°26'0 0.0
2016-Jun-24 15:31N 48°07' W 004°26'0 0.0
2016-Jun-24 14:31N 48°07' W 004°26'4 3.8
2016-Jun-24 13:33N 48°07' W 004°31'1111.4
2016-Jun-24 12:33N 48°09' W 004°48'8 8.3
2016-Jun-24 11:33N 48°17' W 004°45'1111.3
2016-Jun-24 10:33N 48°22' W 004°30'2 2.2
2016-Jun-24 09:32N 48°23' W 004°27'0 0.0
2016-Jun-24 08:32N 48°23' W 004°27'0 0.0
2016-Jun-24 07:32N 48°23' W 004°27'0 0.0
2016-Jun-24 04:32N 48°23' W 004°27'0 0.0
2016-Jun-24 03:32N 48°23' W 004°27'0 0.0
2016-Jun-24 02:32N 48°23' W 004°27'0 0.0
2016-Jun-24 01:32N 48°23' W 004°27'0 0.0
2016-Jun-24 00:32N 48°23' W 004°27'0 0.0
2016-Jun-23 23:32N 48°23' W 004°27'0 0.0
2016-Jun-23 22:32N 48°23' W 004°27'0 0.0
2016-Jun-23 21:32N 48°23' W 004°27'0 0.0
2016-Jun-23 20:29N 48°23' W 004°27'0 0.0
2016-Jun-23 19:32N 48°23' W 004°27'0 0.0
2016-Jun-23 18:32N 48°23' W 004°27'0 0.0
2016-Jun-23 17:32N 48°23' W 004°27'0 0.1
2016-Jun-23 16:34N 48°23' W 004°27'9 9.1
2016-Jun-23 15:33N 48°19' W 004°40'4 3.9
2016-Jun-23 14:31N 48°18' W 004°46'0 0.1
2016-Jun-23 13:31N 48°18' W 004°46'0 0.0
2016-Jun-23 12:31N 48°18' W 004°46'0 0.0
2016-Jun-23 11:31N 48°18' W 004°46'0 0.0
2016-Jun-23 10:31N 48°18' W 004°46'0 0.0
2016-Jun-23 09:31N 48°18' W 004°46'0 0.1
2016-Jun-23 08:31N 48°18' W 004°46'0 0.0
2016-Jun-23 07:31N 48°18' W 004°46'0 0.0
2016-Jun-23 05:31N 48°18' W 004°46'0 0.1
2016-Jun-23 04:31N 48°18' W 004°46'0 0.0
2016-Jun-23 03:31N 48°18' W 004°46'0 0.0
2016-Jun-23 02:31N 48°18' W 004°46'0 0.0
2016-Jun-23 01:31N 48°18' W 004°46'0 0.0
2016-Jun-23 00:31N 48°18' W 004°46'0 0.0
2016-Jun-22 23:31N 48°18' W 004°46'0 0.0
2016-Jun-22 22:31N 48°18' W 004°46'0 0.0
2016-Jun-22 21:31N 48°18' W 004°46'0 0.0
2016-Jun-22 20:31N 48°18' W 004°46'0 0.1
2016-Jun-22 19:31N 48°18' W 004°46'0 0.0
2016-Jun-22 18:31N 48°18' W 004°46'0 0.0
2016-Jun-22 17:31N 48°18' W 004°46'0 0.0
2016-Jun-22 16:31N 48°18' W 004°46'0 0.1
2016-Jun-22 15:31N 48°18' W 004°46'0 0.0
2016-Jun-22 14:31N 48°18' W 004°46'0 0.0
2016-Jun-22 13:31N 48°18' W 004°46'0 0.0
2016-Jun-22 12:31N 48°18' W 004°46'0 0.0
2016-Jun-22 11:31N 48°18' W 004°46'0 0.0
2016-Jun-22 10:31N 48°18' W 004°46'0 0.0
2016-Jun-22 09:31N 48°18' W 004°46'0 0.0
2016-Jun-22 08:31N 48°18' W 004°46'0 0.1
2016-Jun-22 07:31N 48°18' W 004°46'0 0.0
2016-Jun-22 06:31N 48°18' W 004°46'0 0.1
2016-Jun-22 05:31N 48°18' W 004°46'0 0.0
2016-Jun-22 04:31N 48°18' W 004°46'0 0.0
2016-Jun-22 03:31N 48°18' W 004°46'0 0.0
2016-Jun-22 02:31N 48°18' W 004°46'0 0.0
2016-Jun-22 01:31N 48°18' W 004°46'0 0.0
2016-Jun-22 00:31N 48°18' W 004°46'0 0.0
2016-Jun-21 23:31N 48°18' W 004°46'0 0.0
2016-Jun-21 22:31N 48°18' W 004°46'0 0.0
2016-Jun-21 21:31N 48°18' W 004°46'0 0.0
2016-Jun-21 20:31N 48°18' W 004°46'0 0.1
2016-Jun-21 19:31N 48°18' W 004°46'0 0.1
2016-Jun-21 18:31N 48°18' W 004°46'0 0.1
2016-Jun-21 17:31N 48°18' W 004°46'0 0.0
2016-Jun-21 16:31N 48°18' W 004°46'0 0.0
2016-Jun-21 15:31N 48°18' W 004°46'0 0.0
2016-Jun-21 14:31N 48°18' W 004°46'0 0.0
2016-Jun-21 13:31N 48°18' W 004°46'0 0.0
2016-Jun-21 12:31N 48°18' W 004°46'0 0.0
2016-Jun-21 11:31N 48°18' W 004°46'0 0.0
2016-Jun-21 10:31N 48°18' W 004°46'0 0.0
2016-Jun-21 09:31N 48°18' W 004°46'0 0.0
2016-Jun-21 08:31N 48°18' W 004°46'0 0.1
2016-Jun-21 07:31N 48°18' W 004°46'0 0.1
2016-Jun-21 06:32N 48°18' W 004°46'0 0.0
2016-Jun-21 04:31N 48°18' W 004°46'0 0.0
2016-Jun-21 03:31N 48°18' W 004°46'0 0.0
2016-Jun-21 02:31N 48°18' W 004°46'0 0.0
2016-Jun-21 01:31N 48°18' W 004°46'0 0.0
2016-Jun-21 00:31N 48°18' W 004°46'0 0.0
2016-Jun-20 23:31N 48°18' W 004°46'0 0.0
2016-Jun-20 22:31N 48°18' W 004°46'0 0.0
2016-Jun-20 21:31N 48°18' W 004°46'0 0.0
2016-Jun-20 20:31N 48°18' W 004°46'0 0.1
2016-Jun-20 19:31N 48°18' W 004°46'7 6.9
2016-Jun-20 18:33N 48°15' W 004°55'1010.3
2016-Jun-20 17:33N 48°17' W 005°10'105 6.6
2016-Jun-20 01:33N 49°43' W 003°38'1111.0
2016-Jun-20 00:33N 49°49' W 003°23'1111.4
2016-Jun-19 23:33N 49°55' W 003°08'1110.9
2016-Jun-19 22:33N 49°60' W 002°53'9710.3
2016-Jun-19 13:05N 50°26' W 000°27'712.5
2016-Jun-19 12:33N 50°27' W 000°17'1211.8
2016-Jun-19 11:33N 50°31' E 000°01'1111.2
2016-Jun-19 10:33N 50°34' E 000°18'3310.0
2016-Jun-19 07:15N 50°51' E 001°03'912.1
2016-Jun-19 06:31N 50°56' E 001°14'1313.4
2016-Jun-19 05:33N 51°05' E 001°30'1312.9
2016-Jun-19 04:33N 51°13' E 001°45'1111.5
2016-Jun-19 03:33N 51°22' E 001°57'9 9.2
2016-Jun-19 02:33N 51°22' E 002°11'10 9.9
2016-Jun-19 01:34N 51°22' E 002°27'10 9.5
2016-Jun-19 00:33N 51°22' E 002°43'8 8.5
2016-Jun-18 23:33N 51°23' E 002°56'9 8.7
2016-Jun-18 22:33N 51°24' E 003°10'9 8.9
2016-Jun-18 21:33N 51°25' E 003°24'9 9.4
2016-Jun-18 20:33N 51°26' E 003°39'10 9.5
2016-Jun-18 19:33N 51°21' E 003°51'7 7.3
2016-Jun-18 18:33N 51°23' E 004°02'9 9.5
2016-Jun-18 17:34N 51°19' E 004°16'4 3.7
2016-Jun-18 16:34N 51°17' E 004°20'1 1.0
2016-Jun-18 15:33N 51°16' E 004°20'0 0.0
2016-Jun-18 14:33N 51°16' E 004°20'0 0.0
2016-Jun-18 13:30N 51°16' E 004°20'0 0.0
2016-Jun-18 12:33N 51°16' E 004°20'0 0.0
2016-Jun-18 11:33N 51°16' E 004°20'0 0.0
2016-Jun-18 10:33N 51°16' E 004°20'0 0.0
2016-Jun-18 09:27N 51°16' E 004°20'0 0.0
2016-Jun-18 08:33N 51°16' E 004°20'0 0.0
2016-Jun-18 07:30N 51°16' E 004°20'0 0.0
2016-Jun-18 06:33N 51°16' E 004°20'0 0.0
2016-Jun-18 05:33N 51°16' E 004°20'0 0.0
2016-Jun-18 04:30N 51°16' E 004°20'0 0.0
2016-Jun-18 03:30N 51°16' E 004°20'0 0.0
2016-Jun-18 02:33N 51°16' E 004°20'0 0.0
2016-Jun-18 01:33N 51°16' E 004°20'0 0.0
2016-Jun-18 00:33N 51°16' E 004°20'0 0.0
2016-Jun-17 23:33N 51°16' E 004°20'0 0.0
2016-Jun-17 22:33N 51°16' E 004°20'0 0.0
2016-Jun-17 21:33N 51°16' E 004°20'0 0.0
2016-Jun-17 20:33N 51°16' E 004°20'3 3.3
2016-Jun-17 19:33N 51°19' E 004°19'2 2.3
2016-Jun-17 18:34N 51°21' E 004°17'5 5.3
2016-Jun-17 17:33N 51°23' E 004°09'7 7.3
2016-Jun-17 16:33N 51°26' E 003°59'8 8.0
2016-Jun-17 15:33N 51°21' E 003°49'8 8.5
2016-Jun-17 14:33N 51°25' E 003°37'9 8.9
2016-Jun-17 13:33N 51°31' E 003°26'1110.4
2016-Jun-17 12:32N 51°40' E 003°18'5 1.2
2016-Jun-17 08:10N 51°46' E 003°20'0 0.0
2016-Jun-17 07:13N 51°46' E 003°20'0 0.0
2016-Jun-17 02:16N 51°46' E 003°20'0 0.0
2016-Jun-17 00:19N 51°46' E 003°20'0 0.0
2016-Jun-16 23:10N 51°46' E 003°20'0 0.0
2016-Jun-16 21:16N 51°46' E 003°20'0 0.0
2016-Jun-16 19:07N 51°46' E 003°20'0 0.0
2016-Jun-16 18:19N 51°46' E 003°20'  

Dump ship's entire track history